• Join FlightAware (Why Join?)
  • Login
  • US Flag 
09:42AM EDT


 

Airport Tracker/Info


-or-


 

Live Flight TrackerFlight Track Log ✈ UAL5900 ✈ 17-Apr-2013 ✈ KORD - KBNA

Flight Track Log - Related Links

Times and Time Zones

All times are in EDT time to prevent confusion due to time zone crossing. See the UAL5900 flight status page for this flight to view local times or setup timezone preferences in your user account.

Time Position Orientation Groundspeed Altitude Reporting Facility
EDT Latitude Longitude Course Direction KTS MPH feet Rate Location/Type
07:55PM 41.9833 -87.8500 143° Southeast 152 175 2,400  Level Chicago TRACON
07:56PM 41.9500 -87.8167 143° Southeast 225 259 3,600 1,440 Climbing Chicago TRACON
07:57PM 41.8833 -87.8000 169° South 270 311 5,300 2,340 Climbing Chicago TRACON
07:58PM 41.8167 -87.8333 200° South 226 260 8,300 1,920 Climbing Chicago TRACON
08:00PM 41.7100 -87.8042 168° South 259 298 11,900 1,440 Climbing Chicago Center
08:01PM 41.6411 -87.8233 192° South 255 293 13,300 1,440 Climbing Chicago Center
08:02PM 41.5617 -87.8608 199° South 252 290 14,900 1,620 Climbing Chicago Center
08:04PM 41.4933 -87.8967 201° Southwest 261 300 16,600 1,260 Climbing Chicago Center
08:05PM 41.4236 -87.9317 201° Southwest 264 304 17,500 1,080 Climbing Chicago Center
08:06PM 41.3481 -87.9697 201° Southwest 281 323 18,900 1,380 Climbing Chicago Center
08:07PM 41.2722 -88.0069 200° South 286 329 20,400 1,320 Climbing Chicago Center
08:08PM 41.1967 -88.0464 201° Southwest 290 334 21,700 1,200 Climbing Chicago Center
08:09PM 41.1167 -88.0856 200° South 302 348 22,900 1,020 Climbing Chicago Center
08:10PM 41.0350 -88.1258 200° South 311 358 23,900 900 Climbing Chicago Center
08:11PM 40.9528 -88.1675 201° Southwest 316 364 24,800 900 Climbing Chicago Center
08:12PM 40.8669 -88.2097 200° South 328 377 25,800 900 Climbing Chicago Center
08:13PM 40.7794 -88.2525 200° South 336 387 26,700 840 Climbing Chicago Center
08:14PM 40.6919 -88.2972 201° Southwest 336 387 27,600 900 Climbing Chicago Center
08:15PM 40.5822 -88.3503 200° South 347 399 28,600 780 Climbing Chicago Center
08:16PM 40.4892 -88.3961 201° Southwest 355 409 29,300 660 Climbing Chicago Center
08:17PM 40.3939 -88.4431 201° Southwest 362 417 30,000 300 Climbing Chicago Center
08:18PM 40.2892 -88.4522 184° South 379 436 30,000  Level Chicago Center
08:19PM 40.1775 -88.4406 175° South 388 447 30,000  Level Chicago Center
08:20PM 40.0703 -88.4286 175° South 385 443 30,000  Level Chicago Center
08:20PM 40.0500 -88.4244 171° South 386 444 30,000 -120 Level Kansas City Center
08:21PM 39.9444 -88.4106 174° South 383 441 29,900 -420 Descending Kansas City Center
08:22PM 39.8369 -88.3947 174° South 386 444 29,200 -480 Descending Kansas City Center
08:23PM 39.7000 -88.3650 171° South 412 474 29,000 -120 Descending Kansas City Center
08:24PM 39.5956 -88.3292 165° South 422 486 29,000  Level Kansas City Center
08:25PM 39.4808 -88.2892 165° South 426 490 29,000  Level Kansas City Center
08:26PM 39.3642 -88.2500 165° South 430 495 29,000  Level Kansas City Center
08:27PM 39.2464 -88.2111 166° South 432 497 29,000  Level Kansas City Center
08:28PM 39.1053 -88.1614 165° South 436 502 29,000  Level Kansas City Center
08:29PM 39.0347 -88.1369 165° South 436 502 29,000  Level Indianapolis Center
08:30PM 38.9175 -88.0975 165° South 435 501 29,000  Level Indianapolis Center
08:30PM 38.8728 -88.0808 164° South 432 497 29,000  Level Kansas City Center
08:31PM 38.7561 -88.0417 165° South 433 498 29,000  Level Kansas City Center
08:32PM 38.6408 -88.0017 165° South 430 495 29,000  Level Kansas City Center
08:33PM 38.5247 -87.9633 166° South 430 495 29,000  Level Kansas City Center
08:34PM 38.4103 -87.9242 165° South 429 494 29,000  Level Kansas City Center
08:35PM 38.3422 -87.9014 165° South 425 489 29,000  Level Indianapolis Center
08:36PM 38.2281 -87.8633 165° South 424 488 29,000  Level Indianapolis Center
08:37PM 38.0917 -87.8161 165° South 425 489 29,000  Level Indianapolis Center
08:38PM 37.9856 -87.7425 151° Southeast 437 503 29,000  Level Indianapolis Center
08:39PM 37.8833 -87.6608 148° Southeast 436 502 29,000 -300 Level Indianapolis Center
08:40PM 37.7803 -87.5806 148° Southeast 436 502 28,500 -660 Descending Indianapolis Center
08:41PM 37.6831 -87.5094 150° Southeast 433 498 27,700 -1,080 Descending Indianapolis Center
08:42PM 37.5581 -87.4100 148° Southeast 450 518 26,400 -1,320 Descending Indianapolis Center
08:43PM 37.5211 -87.3789 146° Southeast 451 519 25,900 -1,680 Descending Memphis Center
08:44PM 37.3503 -87.2558 150° Southeast 427 491 23,000 -1,500 Descending Indianapolis Center
08:45PM 37.3136 -87.2431 165° South 431 496 23,000  Level Memphis Center
08:45PM 37.2464 -87.2250 168° South 400 460 23,000 -240 Level Memphis Center
08:46PM 37.2044 -87.2136 168° South 409 471 22,800 -2,040 Descending Memphis Center
08:47PM 37.0933 -87.1789 166° South 409 471 20,300 -2,220 Descending Memphis Center
08:48PM 36.9547 -87.1403 167° South 401 461 17,800 -1,800 Descending Memphis Center
08:49PM 36.8894 -87.1197 166° South 404 465 16,700 -1,800 Descending Memphis Center
08:50PM 36.7864 -87.0822 164° South 390 449 14,700 -2,040 Descending Memphis Center
08:51PM 36.6975 -87.0239 152° Southeast 375 432 12,700 -1,740 Descending Memphis Center
08:52PM 36.6106 -86.9731 155° Southeast 356 410 11,300 -1,560 Descending Memphis Center
08:53PM 36.5406 -86.9244 151° Southeast 311 358 9,600 -1,740 Descending Memphis Center
08:54PM 36.4761 -86.8600 141° Southeast 282 325 7,900 -1,680 Descending Memphis Center
08:55PM 36.4225 -86.8031 139° Southeast 256 295 6,300 -1,500 Descending Memphis Center
08:56PM 36.3686 -86.7489 141° Southeast 251 289 5,000 -1,260 Descending Memphis Center
08:57PM 36.3156 -86.7150 153° Southeast 227 261 3,800 -960 Descending Memphis Center
08:58PM 36.2669 -86.6942 161° South 213 245 3,100 -900 Descending Memphis Center
08:59PM 36.2186 -86.6808 167° South 199 229 2,100 -900 Descending Memphis Center
09:00PM 36.1850 -86.6719 168° South 149 171 1,300 -600 Descending Memphis Center
09:01PM 36.1517 -86.6736 182° South 124 143 900 -300 Descending Memphis Center
09:02PM 36.1122 -86.6753 182° South 124 143 700 -240 Descending Memphis Center
09:04PM 36.1167 -86.6667 North  Level FlightAware Approximate
09:11PM 36.1245 -86.6782 North  Level Estimated
09:12PM 36.1245 -86.6782 North  Level Estimated
09:13PM 36.1245 -86.6782 North  Level Estimated
09:14PM 36.1245 -86.6782 North  Level Estimated
09:15PM 36.1245 -86.6782 North  Level Estimated
09:16PM 36.1245 -86.6782 North  Level Estimated
09:17PM 36.1245 -86.6782 North  Level Estimated
09:18PM 36.1245 -86.6782 North  Level Estimated